Mauk, Georgia
Current Conditions -  °F | °C
As of 4:35 PM on Thursday 18 Dec 2014 (Local Time) from KACJ Reporting Station
Broken Clouds Broken Clouds  
Wind Chill: 63°   Ceiling: 12000
Heat Index: 63°   Visibility: 10mi
Dew Point: 27°   Wind: 6mph
Humidity: 26%   Direction: 290°WNW
Pressure: 30.1"   Gusts: NA
Location:  32.5°N, 84.42°W
Report Text: KACJ 182135Z AUTO 29005KT 10SM BKN120 17/M03 A3010 RMK AO2
Loading
Personal Weather Stations






























Interactive Weather Map New forecast layout! Learn more

10-Day Weather Forecast

Advertisements
Track Severe Weather on mobile